Flight Track Log - Related Links

Times and Time Zones

All times are in EDT time to prevent confusion due to time zone crossing. See the DAL1789 flight status page for this flight to view local times or setup timezone preferences in your user account.

Time Position Orientation Groundspeed Altitude Reporting Facility
EDT Latitude Longitude Course Direction KTS MPH feet Rate Location/Type
Fri 05:46:13 PM 33.6333 -84.4667 270° West 169 194 2,600  Level Atlanta TRACON
Fri 05:47:08 PM 33.6333 -84.5333 270° West 237 273 4,600 2,800 Climbing Atlanta TRACON
Fri 05:48:13 PM 33.6333 -84.6333 208° Southwest 275 316 8,200 2,741 Climbing Atlanta TRACON
Fri 05:49:04 PM 33.5733 -84.6722 141° Southeast 298 343 9,900 973 Climbing Atlanta Center
Fri 05:50:04 PM 33.5194 -84.6194 128° Southeast 260 299 10,000 50 Climbing Atlanta Center
Fri 05:51:04 PM 33.4675 -84.5394 129° Southeast 266 306 10,000 700 Level Atlanta Center
Fri 05:52:04 PM 33.4075 -84.4494 129° Southeast 318 366 11,400 2,300 Climbing Atlanta Center
Fri 05:53:04 PM 33.3431 -84.3547 130° Southeast 353 406 14,600 2,650 Climbing Atlanta Center
Fri 05:54:04 PM 33.2722 -84.2550 128° Southeast 380 437 16,700 2,100 Climbing Atlanta Center
Fri 05:55:04 PM 33.1994 -84.1431 130° Southeast 413 475 18,800 2,150 Climbing Atlanta Center
Fri 05:56:04 PM 33.1200 -84.0289 137° Southeast 438 504 21,000 2,083 Climbing Atlanta Center
Fri 05:57:05 PM 33.0281 -83.9272 146° Southeast 446 513 23,000 1,500 Climbing Atlanta Center
Fri 05:58:04 PM 32.9194 -83.8408 146° Southeast 453 521 24,000 500 Climbing Atlanta Center
Fri 05:59:05 PM 32.8108 -83.7547 142° Southeast 464 534 24,000  Level Atlanta Center
Fri 06:01:10 PM 32.5867 -83.5458 139° Southeast 466 536 24,000  Level Jacksonville Center
Fri 06:02:10 PM 32.4869 -83.4442 140° Southeast 471 542 24,000  Level Jacksonville Center
Fri 06:03:10 PM 32.3892 -83.3478 141° Southeast 465 535 24,000  Level Jacksonville Center
Fri 06:04:10 PM 32.2872 -83.2489 139° Southeast 471 542 24,000  Level Jacksonville Center
Fri 06:05:10 PM 32.1892 -83.1478 141° Southeast 471 542 24,000 -300 Level Jacksonville Center
Fri 06:06:10 PM 32.0872 -83.0494 139° Southeast 471 542 23,400 -500 Descending Jacksonville Center
Fri 06:07:10 PM 31.9892 -82.9489 140° Southeast 471 542 23,000 -200 Descending Jacksonville Center
Fri 06:08:10 PM 31.8889 -82.8508 141° Southeast 471 542 23,000  Level Jacksonville Center
Fri 06:09:10 PM 31.7864 -82.7533 140° Southeast 471 542 23,000  Level Jacksonville Center
Fri 06:10:10 PM 31.6861 -82.6558 141° Southeast 471 542 23,000  Level Jacksonville Center
Fri 06:11:10 PM 31.5878 -82.5608 148° Southeast 466 536 23,000 -600 Level Jacksonville Center
Fri 06:12:10 PM 31.4789 -82.4808 158° South 466 536 21,800 -1,750 Descending Jacksonville Center
Fri 06:13:10 PM 31.3639 -82.4253 157° South 452 520 19,500 -2,150 Descending Jacksonville Center
Fri 06:14:10 PM 31.2531 -82.3700 156° South 442 509 17,500 -2,106 Descending Jacksonville Center
Fri 06:14:44 PM 31.1944 -82.3389 158° South 420 483 16,200 -2,056 Descending Jacksonville Center
Fri 06:15:58 PM 31.0689 -82.2789 152° Southeast 389 448 13,800 -1,738 Descending Jacksonville Center
Fri 06:17:09 PM 30.9600 -82.2119 138° Southeast 388 447 12,000 -939 Descending Jacksonville Center
Fri 06:17:53 PM 30.9094 -82.1589 144° Southeast 328 377 12,000 -686 Level Jacksonville Center
Fri 06:18:54 PM 30.8444 -82.1036 147° Southeast 290 334 10,800 -1,537 Descending Jacksonville Center
Fri 06:19:54 PM 30.7775 -82.0536 145° Southeast 283 326 8,900 -1,884 Descending Jacksonville Center
Fri 06:20:55 PM 30.7122 -82.0008 147° Southeast 282 325 7,000 -1,770 Descending Jacksonville Center
Fri 06:21:56 PM 30.6431 -81.9486 150° Southeast 279 321 5,300 -1,426 Descending Jacksonville Center
Fri 06:22:57 PM 30.5800 -81.9056 158° South 265 305 4,100 -984 Descending Jacksonville Center
Fri 06:23:58 PM 30.5192 -81.8772 154° Southeast 227 261 3,300 -836 Descending Jacksonville Center
Fri 06:24:59 PM 30.4689 -81.8489 93° East 187 215 2,400 -793 Descending Jacksonville Center
Fri 06:25:59 PM 30.4664 -81.7911 70° East 180 207 1,700 -793 Descending Jacksonville Center
Fri 06:27:00 PM 30.4806 -81.7453 70° East 147 169 800 -738 Descending Jacksonville Center
Fri 06:28:01 PM 30.4928 -81.7064 70° East 134 154 200 -590 Descending Jacksonville Center

Login

Don't have an account? Register now (free) for customized features, flight alerts, and more!